sensor_id;sensor_type;location;lat;lon;timestamp;P1;durP1;ratioP1;P2;durP2;ratioP2
64174;SDS011;50469;50.438;-119.202;2022-09-27T00:01:40;21.58;;;6.45;;
64174;SDS011;50469;50.438;-119.202;2022-09-27T00:04:10;16.20;;;6.10;;
64174;SDS011;50469;50.438;-119.202;2022-09-27T00:06:38;18.98;;;5.97;;
64174;SDS011;50469;50.438;-119.202;2022-09-27T00:09:06;17.55;;;6.18;;
64174;SDS011;50469;50.438;-119.202;2022-09-27T00:11:40;21.50;;;6.10;;
64174;SDS011;50469;50.438;-119.202;2022-09-27T00:14:10;13.75;;;5.95;;
64174;SDS011;50469;50.438;-119.202;2022-09-27T00:16:39;10.25;;;5.85;;
64174;SDS011;50469;50.438;-119.202;2022-09-27T00:19:11;14.90;;;5.50;;
64174;SDS011;50469;50.438;-119.202;2022-09-27T00:21:43;14.88;;;5.40;;
64174;SDS011;50469;50.438;-119.202;2022-09-27T00:24:13;15.18;;;5.93;;
64174;SDS011;50469;50.438;-119.202;2022-09-27T00:26:45;17.38;;;6.30;;
64174;SDS011;50469;50.438;-119.202;2022-09-27T00:29:15;25.38;;;6.05;;
64174;SDS011;50469;50.438;-119.202;2022-09-27T00:31:45;15.88;;;6.60;;
64174;SDS011;50469;50.438;-119.202;2022-09-27T00:34:22;26.33;;;6.03;;
64174;SDS011;50469;50.438;-119.202;2022-09-27T00:36:51;20.17;;;6.15;;
64174;SDS011;50469;50.438;-119.202;2022-09-27T00:39:19;26.65;;;6.15;;
64174;SDS011;50469;50.438;-119.202;2022-09-27T00:41:47;20.27;;;6.28;;
64174;SDS011;50469;50.438;-119.202;2022-09-27T00:55:27;30.98;;;6.43;;
64174;SDS011;50469;50.438;-119.202;2022-09-27T00:58:01;26.27;;;6.78;;
64174;SDS011;50469;50.438;-119.202;2022-09-27T01:00:31;22.48;;;6.32;;
64174;SDS011;50469;50.438;-119.202;2022-09-27T01:02:59;17.27;;;6.55;;
64174;SDS011;50469;50.438;-119.202;2022-09-27T01:05:32;14.27;;;6.35;;
64174;SDS011;50469;50.438;-119.202;2022-09-27T01:08:00;18.90;;;6.78;;
64174;SDS011;50469;50.438;-119.202;2022-09-27T01:10:29;25.77;;;6.68;;
64174;SDS011;50469;50.438;-119.202;2022-09-27T01:24:05;15.23;;;6.93;;
64174;SDS011;50469;50.438;-119.202;2022-09-27T01:27:01;19.15;;;7.55;;
64174;SDS011;50469;50.438;-119.202;2022-09-27T01:35:35;19.98;;;7.68;;
64174;SDS011;50469;50.438;-119.202;2022-09-27T01:44:16;29.33;;;7.93;;
64174;SDS011;50469;50.438;-119.202;2022-09-27T01:46:44;21.80;;;7.70;;
64174;SDS011;50469;50.438;-119.202;2022-09-27T01:49:27;29.30;;;7.25;;
64174;SDS011;50469;50.438;-119.202;2022-09-27T01:52:07;18.85;;;8.82;;
64174;SDS011;50469;50.438;-119.202;2022-09-27T01:54:42;27.10;;;8.25;;
64174;SDS011;50469;50.438;-119.202;2022-09-27T01:57:16;35.63;;;8.60;;
64174;SDS011;50469;50.438;-119.202;2022-09-27T01:59:52;15.68;;;8.15;;
64174;SDS011;50469;50.438;-119.202;2022-09-27T02:02:25;21.27;;;9.05;;
64174;SDS011;50469;50.438;-119.202;2022-09-27T02:04:55;23.42;;;8.23;;
64174;SDS011;50469;50.438;-119.202;2022-09-27T02:07:28;37.13;;;9.23;;
64174;SDS011;50469;50.438;-119.202;2022-09-27T02:10:09;27.13;;;8.65;;
64174;SDS011;50469;50.438;-119.202;2022-09-27T02:12:48;26.60;;;7.55;;
64174;SDS011;50469;50.438;-119.202;2022-09-27T02:15:23;20.85;;;7.35;;
64174;SDS011;50469;50.438;-119.202;2022-09-27T02:17:55;24.50;;;8.68;;
64174;SDS011;50469;50.438;-119.202;2022-09-27T02:20:30;15.25;;;8.18;;
64174;SDS011;50469;50.438;-119.202;2022-09-27T02:28:38;23.75;;;9.70;;
64174;SDS011;50469;50.438;-119.202;2022-09-27T02:31:12;19.35;;;9.43;;
64174;SDS011;50469;50.438;-119.202;2022-09-27T02:38:42;26.67;;;9.43;;
64174;SDS011;50469;50.438;-119.202;2022-09-27T02:41:14;24.73;;;9.18;;
64174;SDS011;50469;50.438;-119.202;2022-09-27T02:43:47;23.15;;;10.05;;
64174;SDS011;50469;50.438;-119.202;2022-09-27T03:02:36;26.63;;;8.95;;
64174;SDS011;50469;50.438;-119.202;2022-09-27T03:06:00;23.65;;;9.23;;
64174;SDS011;50469;50.438;-119.202;2022-09-27T03:11:05;21.15;;;9.32;;
64174;SDS011;50469;50.438;-119.202;2022-09-27T03:13:34;26.38;;;8.98;;
64174;SDS011;50469;50.438;-119.202;2022-09-27T03:16:24;19.38;;;9.23;;
64174;SDS011;50469;50.438;-119.202;2022-09-27T03:18:52;17.98;;;8.57;;
64174;SDS011;50469;50.438;-119.202;2022-09-27T03:21:23;24.50;;;9.02;;
64174;SDS011;50469;50.438;-119.202;2022-09-27T03:23:53;24.75;;;9.77;;
64174;SDS011;50469;50.438;-119.202;2022-09-27T03:26:21;21.30;;;8.93;;
64174;SDS011;50469;50.438;-119.202;2022-09-27T03:28:49;24.02;;;8.98;;
64174;SDS011;50469;50.438;-119.202;2022-09-27T03:31:18;27.20;;;8.93;;
64174;SDS011;50469;50.438;-119.202;2022-09-27T03:33:48;23.80;;;8.88;;
64174;SDS011;50469;50.438;-119.202;2022-09-27T03:36:16;26.90;;;9.45;;
64174;SDS011;50469;50.438;-119.202;2022-09-27T03:38:47;28.95;;;9.00;;
64174;SDS011;50469;50.438;-119.202;2022-09-27T03:41:15;17.80;;;9.40;;
64174;SDS011;50469;50.438;-119.202;2022-09-27T03:43:45;17.92;;;9.43;;
64174;SDS011;50469;50.438;-119.202;2022-09-27T03:46:13;19.67;;;9.05;;
64174;SDS011;50469;50.438;-119.202;2022-09-27T03:48:41;22.17;;;7.82;;
64174;SDS011;50469;50.438;-119.202;2022-09-27T03:51:09;18.38;;;9.13;;
64174;SDS011;50469;50.438;-119.202;2022-09-27T03:53:37;27.42;;;10.18;;
64174;SDS011;50469;50.438;-119.202;2022-09-27T03:56:06;26.77;;;10.88;;
64174;SDS011;50469;50.438;-119.202;2022-09-27T03:58:34;42.80;;;11.20;;
64174;SDS011;50469;50.438;-119.202;2022-09-27T04:01:02;36.05;;;11.70;;
64174;SDS011;50469;50.438;-119.202;2022-09-27T04:03:31;21.52;;;11.50;;
64174;SDS011;50469;50.438;-119.202;2022-09-27T04:05:59;32.08;;;10.63;;
64174;SDS011;50469;50.438;-119.202;2022-09-27T04:08:29;27.63;;;9.95;;
64174;SDS011;50469;50.438;-119.202;2022-09-27T04:11:00;37.05;;;10.68;;
64174;SDS011;50469;50.438;-119.202;2022-09-27T04:13:29;31.45;;;11.05;;
64174;SDS011;50469;50.438;-119.202;2022-09-27T04:15:59;24.52;;;11.15;;
64174;SDS011;50469;50.438;-119.202;2022-09-27T04:18:30;32.67;;;11.77;;
64174;SDS011;50469;50.438;-119.202;2022-09-27T04:21:01;27.58;;;11.35;;
64174;SDS011;50469;50.438;-119.202;2022-09-27T04:23:29;22.80;;;11.75;;
64174;SDS011;50469;50.438;-119.202;2022-09-27T04:25:57;29.90;;;11.63;;
64174;SDS011;50469;50.438;-119.202;2022-09-27T04:28:25;30.92;;;10.60;;
64174;SDS011;50469;50.438;-119.202;2022-09-27T04:30:53;24.45;;;10.63;;
64174;SDS011;50469;50.438;-119.202;2022-09-27T04:33:22;31.08;;;10.98;;
64174;SDS011;50469;50.438;-119.202;2022-09-27T04:35:50;37.90;;;11.88;;
64174;SDS011;50469;50.438;-119.202;2022-09-27T04:38:18;35.88;;;11.15;;
64174;SDS011;50469;50.438;-119.202;2022-09-27T04:40:46;32.78;;;12.20;;
64174;SDS011;50469;50.438;-119.202;2022-09-27T04:43:16;33.63;;;9.75;;
64174;SDS011;50469;50.438;-119.202;2022-09-27T04:45:45;32.92;;;9.90;;
64174;SDS011;50469;50.438;-119.202;2022-09-27T04:48:13;28.15;;;9.32;;
64174;SDS011;50469;50.438;-119.202;2022-09-27T04:50:44;29.23;;;10.57;;
64174;SDS011;50469;50.438;-119.202;2022-09-27T04:53:22;23.73;;;11.15;;
64174;SDS011;50469;50.438;-119.202;2022-09-27T04:55:52;31.52;;;11.10;;
64174;SDS011;50469;50.438;-119.202;2022-09-27T04:58:21;33.13;;;10.65;;
64174;SDS011;50469;50.438;-119.202;2022-09-27T05:00:52;26.80;;;12.60;;
64174;SDS011;50469;50.438;-119.202;2022-09-27T05:03:22;27.27;;;11.50;;
64174;SDS011;50469;50.438;-119.202;2022-09-27T05:05:50;31.75;;;11.02;;
64174;SDS011;50469;50.438;-119.202;2022-09-27T05:08:18;25.63;;;12.25;;
64174;SDS011;50469;50.438;-119.202;2022-09-27T05:10:47;26.50;;;11.23;;
64174;SDS011;50469;50.438;-119.202;2022-09-27T05:13:15;26.55;;;11.80;;
64174;SDS011;50469;50.438;-119.202;2022-09-27T05:15:46;27.15;;;11.43;;
64174;SDS011;50469;50.438;-119.202;2022-09-27T05:18:14;23.98;;;11.63;;
64174;SDS011;50469;50.438;-119.202;2022-09-27T05:20:42;35.10;;;13.15;;
64174;SDS011;50469;50.438;-119.202;2022-09-27T05:23:10;32.67;;;12.75;;
64174;SDS011;50469;50.438;-119.202;2022-09-27T05:25:41;28.45;;;11.93;;
64174;SDS011;50469;50.438;-119.202;2022-09-27T05:28:09;39.97;;;13.48;;
64174;SDS011;50469;50.438;-119.202;2022-09-27T05:30:40;23.83;;;10.70;;
64174;SDS011;50469;50.438;-119.202;2022-09-27T05:33:11;38.60;;;11.80;;
64174;SDS011;50469;50.438;-119.202;2022-09-27T05:35:39;29.52;;;11.15;;
64174;SDS011;50469;50.438;-119.202;2022-09-27T05:38:13;24.27;;;11.65;;
64174;SDS011;50469;50.438;-119.202;2022-09-27T05:40:46;30.07;;;11.73;;
64174;SDS011;50469;50.438;-119.202;2022-09-27T05:43:15;25.67;;;10.57;;
64174;SDS011;50469;50.438;-119.202;2022-09-27T05:45:44;31.23;;;11.82;;
64174;SDS011;50469;50.438;-119.202;2022-09-27T05:48:12;45.67;;;12.13;;
64174;SDS011;50469;50.438;-119.202;2022-09-27T05:50:40;32.70;;;12.07;;
64174;SDS011;50469;50.438;-119.202;2022-09-27T05:53:09;31.17;;;10.35;;
64174;SDS011;50469;50.438;-119.202;2022-09-27T05:55:37;27.60;;;11.30;;
64174;SDS011;50469;50.438;-119.202;2022-09-27T05:58:06;24.30;;;11.60;;
64174;SDS011;50469;50.438;-119.202;2022-09-27T06:00:37;22.05;;;11.43;;
64174;SDS011;50469;50.438;-119.202;2022-09-27T06:03:05;22.20;;;11.45;;
64174;SDS011;50469;50.438;-119.202;2022-09-27T06:05:34;23.63;;;10.65;;
64174;SDS011;50469;50.438;-119.202;2022-09-27T06:08:05;30.13;;;11.13;;
64174;SDS011;50469;50.438;-119.202;2022-09-27T06:10:39;34.88;;;11.00;;
64174;SDS011;50469;50.438;-119.202;2022-09-27T06:13:11;25.70;;;11.85;;
64174;SDS011;50469;50.438;-119.202;2022-09-27T06:15:43;27.02;;;11.63;;
64174;SDS011;50469;50.438;-119.202;2022-09-27T06:18:13;22.48;;;10.45;;
64174;SDS011;50469;50.438;-119.202;2022-09-27T06:20:41;32.00;;;11.38;;
64174;SDS011;50469;50.438;-119.202;2022-09-27T06:23:22;32.60;;;12.25;;
64174;SDS011;50469;50.438;-119.202;2022-09-27T06:25:53;40.50;;;11.68;;
64174;SDS011;50469;50.438;-119.202;2022-09-27T06:28:21;22.70;;;11.18;;
64174;SDS011;50469;50.438;-119.202;2022-09-27T06:30:49;26.98;;;12.90;;
64174;SDS011;50469;50.438;-119.202;2022-09-27T06:33:18;26.05;;;12.43;;
64174;SDS011;50469;50.438;-119.202;2022-09-27T06:35:46;33.25;;;12.32;;
64174;SDS011;50469;50.438;-119.202;2022-09-27T06:38:15;23.65;;;12.07;;
64174;SDS011;50469;50.438;-119.202;2022-09-27T06:40:44;29.30;;;11.05;;
64174;SDS011;50469;50.438;-119.202;2022-09-27T06:43:16;37.03;;;14.05;;
64174;SDS011;50469;50.438;-119.202;2022-09-27T06:45:45;31.85;;;11.35;;
64174;SDS011;50469;50.438;-119.202;2022-09-27T06:48:15;35.85;;;11.68;;
64174;SDS011;50469;50.438;-119.202;2022-09-27T06:50:44;29.85;;;10.77;;
64174;SDS011;50469;50.438;-119.202;2022-09-27T06:53:13;23.20;;;11.93;;
64174;SDS011;50469;50.438;-119.202;2022-09-27T06:55:42;30.50;;;12.93;;
64174;SDS011;50469;50.438;-119.202;2022-09-27T06:58:10;30.25;;;12.65;;
64174;SDS011;50469;50.438;-119.202;2022-09-27T07:00:41;27.38;;;11.75;;
64174;SDS011;50469;50.438;-119.202;2022-09-27T07:03:10;29.95;;;12.00;;
64174;SDS011;50469;50.438;-119.202;2022-09-27T07:05:41;38.63;;;12.75;;
64174;SDS011;50469;50.438;-119.202;2022-09-27T07:08:09;42.53;;;12.07;;
64174;SDS011;50469;50.438;-119.202;2022-09-27T07:10:38;38.10;;;13.18;;
64174;SDS011;50469;50.438;-119.202;2022-09-27T07:13:07;26.77;;;12.82;;
64174;SDS011;50469;50.438;-119.202;2022-09-27T07:15:39;33.58;;;13.20;;
64174;SDS011;50469;50.438;-119.202;2022-09-27T07:18:08;29.52;;;13.68;;
64174;SDS011;50469;50.438;-119.202;2022-09-27T07:20:38;32.25;;;13.57;;
64174;SDS011;50469;50.438;-119.202;2022-09-27T07:23:07;32.38;;;14.27;;
64174;SDS011;50469;50.438;-119.202;2022-09-27T07:25:41;28.25;;;12.73;;
64174;SDS011;50469;50.438;-119.202;2022-09-27T07:28:12;30.45;;;12.40;;
64174;SDS011;50469;50.438;-119.202;2022-09-27T07:30:47;26.70;;;13.68;;
64174;SDS011;50469;50.438;-119.202;2022-09-27T07:33:15;26.17;;;13.02;;
64174;SDS011;50469;50.438;-119.202;2022-09-27T07:35:43;28.65;;;11.70;;
64174;SDS011;50469;50.438;-119.202;2022-09-27T07:38:11;30.13;;;12.52;;
64174;SDS011;50469;50.438;-119.202;2022-09-27T07:40:42;21.70;;;13.10;;
64174;SDS011;50469;50.438;-119.202;2022-09-27T07:43:13;39.30;;;15.65;;
64174;SDS011;50469;50.438;-119.202;2022-09-27T07:45:44;34.45;;;14.50;;
64174;SDS011;50469;50.438;-119.202;2022-09-27T07:48:13;26.95;;;14.68;;
64174;SDS011;50469;50.438;-119.202;2022-09-27T07:50:42;26.00;;;14.00;;
64174;SDS011;50469;50.438;-119.202;2022-09-27T07:53:13;23.80;;;13.38;;
64174;SDS011;50469;50.438;-119.202;2022-09-27T07:55:41;24.90;;;13.05;;
64174;SDS011;50469;50.438;-119.202;2022-09-27T07:58:09;28.60;;;13.13;;
64174;SDS011;50469;50.438;-119.202;2022-09-27T08:00:38;33.10;;;12.88;;
64174;SDS011;50469;50.438;-119.202;2022-09-27T08:03:07;26.95;;;13.88;;
64174;SDS011;50469;50.438;-119.202;2022-09-27T08:05:42;25.45;;;14.80;;
64174;SDS011;50469;50.438;-119.202;2022-09-27T08:08:12;46.08;;;14.27;;
64174;SDS011;50469;50.438;-119.202;2022-09-27T08:10:41;30.27;;;14.82;;
64174;SDS011;50469;50.438;-119.202;2022-09-27T08:13:12;36.38;;;15.25;;
64174;SDS011;50469;50.438;-119.202;2022-09-27T08:15:42;31.15;;;13.70;;
64174;SDS011;50469;50.438;-119.202;2022-09-27T08:18:10;27.42;;;14.77;;
64174;SDS011;50469;50.438;-119.202;2022-09-27T08:20:38;28.17;;;13.85;;
64174;SDS011;50469;50.438;-119.202;2022-09-27T08:23:06;34.58;;;14.20;;
64174;SDS011;50469;50.438;-119.202;2022-09-27T08:25:34;27.92;;;13.82;;
64174;SDS011;50469;50.438;-119.202;2022-09-27T08:28:02;34.58;;;16.05;;
64174;SDS011;50469;50.438;-119.202;2022-09-27T08:30:33;23.98;;;13.07;;
64174;SDS011;50469;50.438;-119.202;2022-09-27T08:33:01;27.23;;;14.32;;
64174;SDS011;50469;50.438;-119.202;2022-09-27T08:35:30;27.98;;;15.68;;
64174;SDS011;50469;50.438;-119.202;2022-09-27T08:37:59;35.05;;;18.35;;
64174;SDS011;50469;50.438;-119.202;2022-09-27T08:51:48;30.00;;;15.60;;
64174;SDS011;50469;50.438;-119.202;2022-09-27T08:54:26;31.10;;;15.80;;
64174;SDS011;50469;50.438;-119.202;2022-09-27T08:57:01;31.95;;;16.10;;
64174;SDS011;50469;50.438;-119.202;2022-09-27T08:59:36;26.67;;;15.05;;
64174;SDS011;50469;50.438;-119.202;2022-09-27T09:02:21;31.20;;;15.25;;
64174;SDS011;50469;50.438;-119.202;2022-09-27T09:04:52;29.98;;;15.93;;
64174;SDS011;50469;50.438;-119.202;2022-09-27T09:12:56;27.13;;;14.25;;
64174;SDS011;50469;50.438;-119.202;2022-09-27T09:26:33;32.83;;;16.65;;
64174;SDS011;50469;50.438;-119.202;2022-09-27T09:34:53;27.45;;;16.23;;
64174;SDS011;50469;50.438;-119.202;2022-09-27T09:37:39;27.75;;;14.48;;
64174;SDS011;50469;50.438;-119.202;2022-09-27T09:40:30;34.08;;;15.70;;
64174;SDS011;50469;50.438;-119.202;2022-09-27T09:43:16;34.03;;;16.08;;
64174;SDS011;50469;50.438;-119.202;2022-09-27T09:46:02;33.75;;;15.35;;
64174;SDS011;50469;50.438;-119.202;2022-09-27T09:51:20;33.53;;;13.82;;
64174;SDS011;50469;50.438;-119.202;2022-09-27T09:53:53;31.85;;;13.70;;
64174;SDS011;50469;50.438;-119.202;2022-09-27T09:56:32;33.13;;;14.35;;
64174;SDS011;50469;50.438;-119.202;2022-09-27T09:59:23;28.63;;;13.57;;
64174;SDS011;50469;50.438;-119.202;2022-09-27T10:01:59;38.28;;;12.95;;
64174;SDS011;50469;50.438;-119.202;2022-09-27T10:04:54;27.40;;;15.23;;
64174;SDS011;50469;50.438;-119.202;2022-09-27T10:07:25;34.25;;;12.80;;
64174;SDS011;50469;50.438;-119.202;2022-09-27T10:09:54;27.98;;;15.93;;
64174;SDS011;50469;50.438;-119.202;2022-09-27T10:12:28;35.53;;;16.95;;
64174;SDS011;50469;50.438;-119.202;2022-09-27T10:14:57;34.25;;;14.52;;
64174;SDS011;50469;50.438;-119.202;2022-09-27T10:17:37;38.03;;;16.55;;
64174;SDS011;50469;50.438;-119.202;2022-09-27T10:20:09;39.30;;;20.50;;
64174;SDS011;50469;50.438;-119.202;2022-09-27T10:22:52;45.08;;;18.92;;
64174;SDS011;50469;50.438;-119.202;2022-09-27T10:25:23;36.40;;;19.40;;
64174;SDS011;50469;50.438;-119.202;2022-09-27T10:27:51;38.08;;;17.17;;
64174;SDS011;50469;50.438;-119.202;2022-09-27T10:32:56;31.65;;;14.57;;
64174;SDS011;50469;50.438;-119.202;2022-09-27T10:40:45;43.75;;;17.92;;
64174;SDS011;50469;50.438;-119.202;2022-09-27T10:43:34;31.08;;;15.40;;
64174;SDS011;50469;50.438;-119.202;2022-09-27T10:48:44;33.17;;;13.25;;
64174;SDS011;50469;50.438;-119.202;2022-09-27T10:51:21;28.35;;;13.02;;
64174;SDS011;50469;50.438;-119.202;2022-09-27T10:53:56;36.03;;;13.32;;
64174;SDS011;50469;50.438;-119.202;2022-09-27T10:56:36;37.85;;;17.17;;
64174;SDS011;50469;50.438;-119.202;2022-09-27T10:59:12;33.92;;;16.58;;
64174;SDS011;50469;50.438;-119.202;2022-09-27T11:01:47;29.27;;;15.85;;
64174;SDS011;50469;50.438;-119.202;2022-09-27T11:04:17;39.92;;;16.48;;
64174;SDS011;50469;50.438;-119.202;2022-09-27T11:09:46;29.75;;;14.30;;
64174;SDS011;50469;50.438;-119.202;2022-09-27T11:12:19;35.22;;;14.95;;
64174;SDS011;50469;50.438;-119.202;2022-09-27T11:14:52;22.77;;;13.75;;
64174;SDS011;50469;50.438;-119.202;2022-09-27T11:17:25;27.30;;;15.32;;
64174;SDS011;50469;50.438;-119.202;2022-09-27T11:20:02;29.98;;;14.85;;
64174;SDS011;50469;50.438;-119.202;2022-09-27T11:23:03;34.53;;;15.65;;
64174;SDS011;50469;50.438;-119.202;2022-09-27T11:25:55;34.90;;;18.30;;
64174;SDS011;50469;50.438;-119.202;2022-09-27T11:34:12;42.35;;;20.25;;
64174;SDS011;50469;50.438;-119.202;2022-09-27T11:45:54;40.67;;;18.80;;
64174;SDS011;50469;50.438;-119.202;2022-09-27T11:54:30;39.92;;;14.65;;
64174;SDS011;50469;50.438;-119.202;2022-09-27T12:02:37;26.60;;;14.30;;
64174;SDS011;50469;50.438;-119.202;2022-09-27T12:08:05;34.70;;;14.45;;
64174;SDS011;50469;50.438;-119.202;2022-09-27T12:10:35;35.25;;;12.57;;
64174;SDS011;50469;50.438;-119.202;2022-09-27T12:13:09;26.23;;;9.50;;
64174;SDS011;50469;50.438;-119.202;2022-09-27T12:15:41;26.42;;;13.52;;
64174;SDS011;50469;50.438;-119.202;2022-09-27T12:18:28;28.60;;;12.63;;
64174;SDS011;50469;50.438;-119.202;2022-09-27T12:21:02;35.55;;;13.68;;
64174;SDS011;50469;50.438;-119.202;2022-09-27T12:23:38;36.50;;;13.63;;
64174;SDS011;50469;50.438;-119.202;2022-09-27T12:26:28;25.77;;;14.07;;
64174;SDS011;50469;50.438;-119.202;2022-09-27T12:28:58;27.02;;;15.27;;
64174;SDS011;50469;50.438;-119.202;2022-09-27T12:31:30;40.00;;;21.83;;
64174;SDS011;50469;50.438;-119.202;2022-09-27T12:34:10;31.33;;;17.20;;
64174;SDS011;50469;50.438;-119.202;2022-09-27T12:37:04;26.23;;;14.43;;
64174;SDS011;50469;50.438;-119.202;2022-09-27T12:39:51;28.00;;;16.77;;
64174;SDS011;50469;50.438;-119.202;2022-09-27T12:42:54;30.40;;;16.05;;
64174;SDS011;50469;50.438;-119.202;2022-09-27T12:48:27;34.25;;;16.17;;
64174;SDS011;50469;50.438;-119.202;2022-09-27T12:51:23;29.20;;;15.93;;
64174;SDS011;50469;50.438;-119.202;2022-09-27T12:56:55;25.60;;;15.20;;
64174;SDS011;50469;50.438;-119.202;2022-09-27T12:59:53;24.83;;;13.68;;
64174;SDS011;50469;50.438;-119.202;2022-09-27T13:02:38;23.60;;;13.68;;
64174;SDS011;50469;50.438;-119.202;2022-09-27T13:13:57;29.48;;;13.77;;
64174;SDS011;50469;50.438;-119.202;2022-09-27T13:16:27;31.52;;;13.02;;
64174;SDS011;50469;50.438;-119.202;2022-09-27T13:18:58;32.65;;;14.02;;
64174;SDS011;50469;50.438;-119.202;2022-09-27T13:29:28;22.98;;;13.55;;
64174;SDS011;50469;50.438;-119.202;2022-09-27T13:37:52;29.40;;;15.73;;
64174;SDS011;50469;50.438;-119.202;2022-09-27T13:40:19;29.27;;;18.50;;
64174;SDS011;50469;50.438;-119.202;2022-09-27T13:48:22;26.38;;;15.57;;
64174;SDS011;50469;50.438;-119.202;2022-09-27T13:50:57;24.80;;;13.48;;
64174;SDS011;50469;50.438;-119.202;2022-09-27T13:53:36;30.20;;;16.40;;
64174;SDS011;50469;50.438;-119.202;2022-09-27T13:56:51;29.95;;;15.93;;
64174;SDS011;50469;50.438;-119.202;2022-09-27T13:59:24;32.88;;;18.00;;
64174;SDS011;50469;50.438;-119.202;2022-09-27T14:04:48;24.75;;;15.05;;
64174;SDS011;50469;50.438;-119.202;2022-09-27T14:07:20;24.00;;;13.27;;
64174;SDS011;50469;50.438;-119.202;2022-09-27T14:09:54;35.90;;;12.57;;
64174;SDS011;50469;50.438;-119.202;2022-09-27T14:12:26;27.48;;;12.85;;
64174;SDS011;50469;50.438;-119.202;2022-09-27T14:15:02;29.65;;;14.30;;
64174;SDS011;50469;50.438;-119.202;2022-09-27T14:17:31;32.22;;;13.43;;
64174;SDS011;50469;50.438;-119.202;2022-09-27T14:19:59;48.53;;;14.82;;
64174;SDS011;50469;50.438;-119.202;2022-09-27T14:22:28;24.65;;;12.88;;
64174;SDS011;50469;50.438;-119.202;2022-09-27T14:24:56;33.15;;;13.32;;
64174;SDS011;50469;50.438;-119.202;2022-09-27T14:27:26;23.38;;;11.70;;
64174;SDS011;50469;50.438;-119.202;2022-09-27T14:30:00;25.08;;;13.40;;
64174;SDS011;50469;50.438;-119.202;2022-09-27T14:32:47;34.80;;;14.82;;
64174;SDS011;50469;50.438;-119.202;2022-09-27T14:37:45;28.83;;;12.80;;
64174;SDS011;50469;50.438;-119.202;2022-09-27T14:40:19;21.42;;;12.48;;
64174;SDS011;50469;50.438;-119.202;2022-09-27T14:42:51;23.77;;;14.95;;
64174;SDS011;50469;50.438;-119.202;2022-09-27T14:45:23;27.20;;;15.55;;
64174;SDS011;50469;50.438;-119.202;2022-09-27T14:47:56;26.52;;;14.02;;
64174;SDS011;50469;50.438;-119.202;2022-09-27T14:50:25;32.58;;;12.85;;
64174;SDS011;50469;50.438;-119.202;2022-09-27T14:52:55;33.58;;;14.15;;
64174;SDS011;50469;50.438;-119.202;2022-09-27T14:55:27;27.55;;;12.55;;
64174;SDS011;50469;50.438;-119.202;2022-09-27T14:58:00;33.30;;;15.27;;
64174;SDS011;50469;50.438;-119.202;2022-09-27T15:01:00;30.20;;;12.75;;
64174;SDS011;50469;50.438;-119.202;2022-09-27T15:03:30;30.08;;;16.38;;
64174;SDS011;50469;50.438;-119.202;2022-09-27T15:06:09;22.80;;;14.63;;
64174;SDS011;50469;50.438;-119.202;2022-09-27T15:08:37;26.92;;;16.90;;
64174;SDS011;50469;50.438;-119.202;2022-09-27T15:11:06;36.38;;;20.13;;
64174;SDS011;50469;50.438;-119.202;2022-09-27T15:13:36;31.92;;;19.83;;
64174;SDS011;50469;50.438;-119.202;2022-09-27T15:16:12;23.13;;;14.50;;
64174;SDS011;50469;50.438;-119.202;2022-09-27T15:18:45;23.95;;;14.23;;
64174;SDS011;50469;50.438;-119.202;2022-09-27T15:21:26;29.15;;;14.90;;
64174;SDS011;50469;50.438;-119.202;2022-09-27T15:23:58;20.85;;;13.50;;
64174;SDS011;50469;50.438;-119.202;2022-09-27T15:29:22;25.58;;;15.40;;
64174;SDS011;50469;50.438;-119.202;2022-09-27T15:32:26;19.55;;;14.32;;
64174;SDS011;50469;50.438;-119.202;2022-09-27T15:34:48;26.85;;;14.60;;
64174;SDS011;50469;50.438;-119.202;2022-09-27T15:46:26;19.35;;;11.82;;
64174;SDS011;50469;50.438;-119.202;2022-09-27T15:51:47;19.40;;;12.45;;
64174;SDS011;50469;50.438;-119.202;2022-09-27T15:54:17;23.23;;;9.80;;
64174;SDS011;50469;50.438;-119.202;2022-09-27T15:56:49;24.77;;;9.70;;
64174;SDS011;50469;50.438;-119.202;2022-09-27T15:59:25;20.80;;;10.90;;
64174;SDS011;50469;50.438;-119.202;2022-09-27T16:01:56;19.13;;;9.93;;
64174;SDS011;50469;50.438;-119.202;2022-09-27T16:04:31;32.50;;;10.18;;
64174;SDS011;50469;50.438;-119.202;2022-09-27T16:06:59;18.73;;;10.10;;
64174;SDS011;50469;50.438;-119.202;2022-09-27T16:09:32;14.27;;;8.70;;
64174;SDS011;50469;50.438;-119.202;2022-09-27T16:12:02;17.02;;;9.35;;
64174;SDS011;50469;50.438;-119.202;2022-09-27T16:14:30;22.00;;;8.98;;
64174;SDS011;50469;50.438;-119.202;2022-09-27T16:16:58;12.88;;;8.55;;
64174;SDS011;50469;50.438;-119.202;2022-09-27T16:19:26;17.70;;;8.63;;
64174;SDS011;50469;50.438;-119.202;2022-09-27T16:21:54;23.05;;;7.88;;
64174;SDS011;50469;50.438;-119.202;2022-09-27T16:24:25;24.33;;;8.20;;
64174;SDS011;50469;50.438;-119.202;2022-09-27T16:26:55;18.73;;;8.23;;
64174;SDS011;50469;50.438;-119.202;2022-09-27T16:29:26;20.52;;;8.73;;
64174;SDS011;50469;50.438;-119.202;2022-09-27T16:31:54;22.20;;;8.32;;
64174;SDS011;50469;50.438;-119.202;2022-09-27T16:34:22;28.98;;;7.57;;
64174;SDS011;50469;50.438;-119.202;2022-09-27T16:36:51;27.75;;;7.07;;
64174;SDS011;50469;50.438;-119.202;2022-09-27T16:39:19;17.92;;;7.60;;
64174;SDS011;50469;50.438;-119.202;2022-09-27T16:41:47;18.67;;;8.45;;
64174;SDS011;50469;50.438;-119.202;2022-09-27T16:44:15;19.13;;;8.23;;
64174;SDS011;50469;50.438;-119.202;2022-09-27T16:46:43;21.08;;;7.40;;
64174;SDS011;50469;50.438;-119.202;2022-09-27T16:49:11;17.25;;;7.43;;
64174;SDS011;50469;50.438;-119.202;2022-09-27T16:51:39;15.20;;;7.85;;
64174;SDS011;50469;50.438;-119.202;2022-09-27T16:54:08;14.88;;;6.82;;
64174;SDS011;50469;50.438;-119.202;2022-09-27T16:56:36;14.68;;;7.30;;
64174;SDS011;50469;50.438;-119.202;2022-09-27T16:59:04;14.38;;;7.60;;
64174;SDS011;50469;50.438;-119.202;2022-09-27T17:01:32;12.93;;;7.35;;
64174;SDS011;50469;50.438;-119.202;2022-09-27T17:04:01;13.30;;;7.07;;
64174;SDS011;50469;50.438;-119.202;2022-09-27T17:06:32;11.07;;;7.18;;
64174;SDS011;50469;50.438;-119.202;2022-09-27T17:09:00;14.65;;;6.75;;
64174;SDS011;50469;50.438;-119.202;2022-09-27T17:11:34;19.90;;;6.40;;
64174;SDS011;50469;50.438;-119.202;2022-09-27T17:14:05;20.80;;;7.68;;
64174;SDS011;50469;50.438;-119.202;2022-09-27T17:16:33;13.52;;;6.65;;
64174;SDS011;50469;50.438;-119.202;2022-09-27T17:19:01;18.00;;;6.75;;
64174;SDS011;50469;50.438;-119.202;2022-09-27T17:21:29;12.75;;;7.32;;
64174;SDS011;50469;50.438;-119.202;2022-09-27T17:24:03;11.98;;;7.10;;
64174;SDS011;50469;50.438;-119.202;2022-09-27T17:26:32;17.90;;;7.15;;
64174;SDS011;50469;50.438;-119.202;2022-09-27T17:29:03;12.18;;;7.18;;
64174;SDS011;50469;50.438;-119.202;2022-09-27T17:31:31;11.05;;;7.15;;
64174;SDS011;50469;50.438;-119.202;2022-09-27T17:33:59;20.75;;;8.35;;
64174;SDS011;50469;50.438;-119.202;2022-09-27T17:36:30;12.43;;;6.90;;